sensor_id;sensor_type;location;lat;lon;timestamp;P1;P2;P0
63305;PMS5003;50735;52.060;1.248;2023-05-10T00:01:41;7;6;
63305;PMS5003;50735;52.060;1.248;2023-05-10T00:04:13;5;5;
63305;PMS5003;50735;52.060;1.248;2023-05-10T00:06:45;3;3;
63305;PMS5003;50735;52.060;1.248;2023-05-10T00:09:17;4;4;
63305;PMS5003;50735;52.060;1.248;2023-05-10T00:11:49;8;5;
63305;PMS5003;50735;52.060;1.248;2023-05-10T00:14:21;6;6;
63305;PMS5003;50735;52.060;1.248;2023-05-10T00:16:52;4;4;
63305;PMS5003;50735;52.060;1.248;2023-05-10T00:19:24;7;7;
63305;PMS5003;50735;52.060;1.248;2023-05-10T00:21:56;7;7;
63305;PMS5003;50735;52.060;1.248;2023-05-10T00:24:28;6;6;
63305;PMS5003;50735;52.060;1.248;2023-05-10T00:27:00;8;7;
63305;PMS5003;50735;52.060;1.248;2023-05-10T00:29:31;6;6;
63305;PMS5003;50735;52.060;1.248;2023-05-10T00:32:03;7;7;
63305;PMS5003;50735;52.060;1.248;2023-05-10T00:34:35;6;6;
63305;PMS5003;50735;52.060;1.248;2023-05-10T00:37:07;6;6;
63305;PMS5003;50735;52.060;1.248;2023-05-10T00:39:39;7;7;
63305;PMS5003;50735;52.060;1.248;2023-05-10T00:42:11;5;5;
63305;PMS5003;50735;52.060;1.248;2023-05-10T00:44:42;6;6;
63305;PMS5003;50735;52.060;1.248;2023-05-10T00:47:15;6;6;
63305;PMS5003;50735;52.060;1.248;2023-05-10T00:49:47;7;7;
63305;PMS5003;50735;52.060;1.248;2023-05-10T00:52:19;9;8;
63305;PMS5003;50735;52.060;1.248;2023-05-10T00:54:50;8;7;
63305;PMS5003;50735;52.060;1.248;2023-05-10T00:57:23;7;7;
63305;PMS5003;50735;52.060;1.248;2023-05-10T00:59:56;8;6;
63305;PMS5003;50735;52.060;1.248;2023-05-10T01:02:29;6;6;
63305;PMS5003;50735;52.060;1.248;2023-05-10T01:05:02;7;6;
63305;PMS5003;50735;52.060;1.248;2023-05-10T01:07:34;14;7;
63305;PMS5003;50735;52.060;1.248;2023-05-10T01:10:06;8;8;
63305;PMS5003;50735;52.060;1.248;2023-05-10T01:12:40;9;8;
63305;PMS5003;50735;52.060;1.248;2023-05-10T01:15:15;10;7;
63305;PMS5003;50735;52.060;1.248;2023-05-10T01:17:48;8;8;
63305;PMS5003;50735;52.060;1.248;2023-05-10T01:20:20;8;8;
63305;PMS5003;50735;52.060;1.248;2023-05-10T01:23:04;11;7;
63305;PMS5003;50735;52.060;1.248;2023-05-10T01:25:58;7;7;
63305;PMS5003;50735;52.060;1.248;2023-05-10T01:29:10;9;9;
63305;PMS5003;50735;52.060;1.248;2023-05-10T01:32:04;9;8;
63305;PMS5003;50735;52.060;1.248;2023-05-10T01:34:48;14;14;
63305;PMS5003;50735;52.060;1.248;2023-05-10T01:37:28;10;9;
63305;PMS5003;50735;52.060;1.248;2023-05-10T01:40:08;6;6;
63305;PMS5003;50735;52.060;1.248;2023-05-10T01:42:47;6;6;
63305;PMS5003;50735;52.060;1.248;2023-05-10T01:45:26;7;6;
63305;PMS5003;50735;52.060;1.248;2023-05-10T01:48:05;9;9;
63305;PMS5003;50735;52.060;1.248;2023-05-10T01:50:40;7;7;
63305;PMS5003;50735;52.060;1.248;2023-05-10T01:53:17;13;11;
63305;PMS5003;50735;52.060;1.248;2023-05-10T01:55:52;7;7;
63305;PMS5003;50735;52.060;1.248;2023-05-10T01:58:27;7;7;
63305;PMS5003;50735;52.060;1.248;2023-05-10T02:01:01;7;6;
63305;PMS5003;50735;52.060;1.248;2023-05-10T02:03:35;9;7;
63305;PMS5003;50735;52.060;1.248;2023-05-10T02:06:09;8;8;
63305;PMS5003;50735;52.060;1.248;2023-05-10T02:08:43;10;9;
63305;PMS5003;50735;52.060;1.248;2023-05-10T02:11:18;9;9;
63305;PMS5003;50735;52.060;1.248;2023-05-10T02:13:51;7;7;
63305;PMS5003;50735;52.060;1.248;2023-05-10T02:16:26;7;7;
63305;PMS5003;50735;52.060;1.248;2023-05-10T02:18:58;13;8;
63305;PMS5003;50735;52.060;1.248;2023-05-10T02:21:33;7;6;
63305;PMS5003;50735;52.060;1.248;2023-05-10T02:24:07;7;7;
63305;PMS5003;50735;52.060;1.248;2023-05-10T02:26:40;8;6;
63305;PMS5003;50735;52.060;1.248;2023-05-10T02:29:13;10;10;
63305;PMS5003;50735;52.060;1.248;2023-05-10T02:31:47;10;7;
63305;PMS5003;50735;52.060;1.248;2023-05-10T02:34:22;8;7;
63305;PMS5003;50735;52.060;1.248;2023-05-10T02:36:55;6;6;
63305;PMS5003;50735;52.060;1.248;2023-05-10T02:39:28;14;10;
63305;PMS5003;50735;52.060;1.248;2023-05-10T02:42:03;7;7;
63305;PMS5003;50735;52.060;1.248;2023-05-10T02:44:36;10;10;
63305;PMS5003;50735;52.060;1.248;2023-05-10T02:47:10;9;9;
63305;PMS5003;50735;52.060;1.248;2023-05-10T02:49:41;9;9;
63305;PMS5003;50735;52.060;1.248;2023-05-10T02:52:14;8;8;
63305;PMS5003;50735;52.060;1.248;2023-05-10T02:54:54;11;9;
63305;PMS5003;50735;52.060;1.248;2023-05-10T02:57:31;8;8;
63305;PMS5003;50735;52.060;1.248;2023-05-10T03:00:05;11;11;
63305;PMS5003;50735;52.060;1.248;2023-05-10T03:02:38;11;10;
63305;PMS5003;50735;52.060;1.248;2023-05-10T03:05:10;11;9;
63305;PMS5003;50735;52.060;1.248;2023-05-10T03:07:42;12;10;
63305;PMS5003;50735;52.060;1.248;2023-05-10T03:10:14;14;14;
63305;PMS5003;50735;52.060;1.248;2023-05-10T03:12:49;9;9;
63305;PMS5003;50735;52.060;1.248;2023-05-10T03:15:37;9;8;
63305;PMS5003;50735;52.060;1.248;2023-05-10T03:18:21;7;7;
63305;PMS5003;50735;52.060;1.248;2023-05-10T03:20:55;8;8;
63305;PMS5003;50735;52.060;1.248;2023-05-10T03:23:33;11;8;
63305;PMS5003;50735;52.060;1.248;2023-05-10T03:26:07;17;13;
63305;PMS5003;50735;52.060;1.248;2023-05-10T03:28:39;11;9;
63305;PMS5003;50735;52.060;1.248;2023-05-10T03:31:12;18;11;
63305;PMS5003;50735;52.060;1.248;2023-05-10T03:33:46;15;13;
63305;PMS5003;50735;52.060;1.248;2023-05-10T03:36:18;12;11;
63305;PMS5003;50735;52.060;1.248;2023-05-10T03:38:50;13;9;
63305;PMS5003;50735;52.060;1.248;2023-05-10T03:41:22;13;12;
63305;PMS5003;50735;52.060;1.248;2023-05-10T03:43:54;12;12;
63305;PMS5003;50735;52.060;1.248;2023-05-10T03:46:26;11;11;
63305;PMS5003;50735;52.060;1.248;2023-05-10T03:48:58;17;14;
63305;PMS5003;50735;52.060;1.248;2023-05-10T03:51:29;13;11;
63305;PMS5003;50735;52.060;1.248;2023-05-10T03:54:01;21;13;
63305;PMS5003;50735;52.060;1.248;2023-05-10T03:56:33;9;9;
63305;PMS5003;50735;52.060;1.248;2023-05-10T03:59:04;12;10;
63305;PMS5003;50735;52.060;1.248;2023-05-10T04:01:36;18;14;
63305;PMS5003;50735;52.060;1.248;2023-05-10T04:04:07;13;11;
63305;PMS5003;50735;52.060;1.248;2023-05-10T04:06:39;12;12;
63305;PMS5003;50735;52.060;1.248;2023-05-10T04:09:11;8;8;
63305;PMS5003;50735;52.060;1.248;2023-05-10T04:11:43;9;9;
63305;PMS5003;50735;52.060;1.248;2023-05-10T04:14:14;11;11;
63305;PMS5003;50735;52.060;1.248;2023-05-10T04:16:46;11;8;
63305;PMS5003;50735;52.060;1.248;2023-05-10T04:19:18;16;14;
63305;PMS5003;50735;52.060;1.248;2023-05-10T04:21:50;8;8;
63305;PMS5003;50735;52.060;1.248;2023-05-10T04:24:21;8;7;
63305;PMS5003;50735;52.060;1.248;2023-05-10T04:26:53;8;7;
63305;PMS5003;50735;52.060;1.248;2023-05-10T04:29:26;9;6;
63305;PMS5003;50735;52.060;1.248;2023-05-10T04:31:58;8;7;
63305;PMS5003;50735;52.060;1.248;2023-05-10T04:34:30;8;8;
63305;PMS5003;50735;52.060;1.248;2023-05-10T04:37:01;9;7;
63305;PMS5003;50735;52.060;1.248;2023-05-10T04:39:33;10;8;
63305;PMS5003;50735;52.060;1.248;2023-05-10T04:42:05;12;8;
63305;PMS5003;50735;52.060;1.248;2023-05-10T04:44:37;9;7;
63305;PMS5003;50735;52.060;1.248;2023-05-10T04:47:08;12;8;
63305;PMS5003;50735;52.060;1.248;2023-05-10T04:49:40;15;12;
63305;PMS5003;50735;52.060;1.248;2023-05-10T04:52:12;10;7;
63305;PMS5003;50735;52.060;1.248;2023-05-10T04:54:44;11;7;
63305;PMS5003;50735;52.060;1.248;2023-05-10T04:57:16;11;9;
63305;PMS5003;50735;52.060;1.248;2023-05-10T04:59:47;10;9;
63305;PMS5003;50735;52.060;1.248;2023-05-10T05:02:19;9;9;
63305;PMS5003;50735;52.060;1.248;2023-05-10T05:04:51;8;7;
63305;PMS5003;50735;52.060;1.248;2023-05-10T05:07:23;8;7;
63305;PMS5003;50735;52.060;1.248;2023-05-10T05:09:55;8;8;
63305;PMS5003;50735;52.060;1.248;2023-05-10T05:12:27;9;8;
63305;PMS5003;50735;52.060;1.248;2023-05-10T05:14:59;8;7;
63305;PMS5003;50735;52.060;1.248;2023-05-10T05:17:30;7;7;
63305;PMS5003;50735;52.060;1.248;2023-05-10T05:20:02;17;6;
63305;PMS5003;50735;52.060;1.248;2023-05-10T05:22:35;15;9;
63305;PMS5003;50735;52.060;1.248;2023-05-10T05:25:07;8;7;
63305;PMS5003;50735;52.060;1.248;2023-05-10T05:27:40;6;6;
63305;PMS5003;50735;52.060;1.248;2023-05-10T05:30:12;13;7;
63305;PMS5003;50735;52.060;1.248;2023-05-10T05:32:44;9;7;
63305;PMS5003;50735;52.060;1.248;2023-05-10T05:35:16;7;6;
63305;PMS5003;50735;52.060;1.248;2023-05-10T05:37:47;12;8;
63305;PMS5003;50735;52.060;1.248;2023-05-10T05:40:19;8;8;
63305;PMS5003;50735;52.060;1.248;2023-05-10T05:42:51;9;6;
63305;PMS5003;50735;52.060;1.248;2023-05-10T05:45:22;8;8;
63305;PMS5003;50735;52.060;1.248;2023-05-10T05:47:54;11;8;
63305;PMS5003;50735;52.060;1.248;2023-05-10T05:50:26;9;7;
63305;PMS5003;50735;52.060;1.248;2023-05-10T05:52:58;8;7;
63305;PMS5003;50735;52.060;1.248;2023-05-10T05:55:30;11;8;
63305;PMS5003;50735;52.060;1.248;2023-05-10T05:58:01;8;6;
63305;PMS5003;50735;52.060;1.248;2023-05-10T06:00:33;10;8;
63305;PMS5003;50735;52.060;1.248;2023-05-10T06:03:05;10;7;
63305;PMS5003;50735;52.060;1.248;2023-05-10T06:05:37;8;8;
63305;PMS5003;50735;52.060;1.248;2023-05-10T06:08:08;8;5;
63305;PMS5003;50735;52.060;1.248;2023-05-10T06:10:40;6;6;
63305;PMS5003;50735;52.060;1.248;2023-05-10T06:13:12;8;8;
63305;PMS5003;50735;52.060;1.248;2023-05-10T06:15:44;8;7;
63305;PMS5003;50735;52.060;1.248;2023-05-10T06:18:15;5;5;
63305;PMS5003;50735;52.060;1.248;2023-05-10T06:20:47;5;5;
63305;PMS5003;50735;52.060;1.248;2023-05-10T06:23:21;6;6;
63305;PMS5003;50735;52.060;1.248;2023-05-10T06:25:53;7;5;
63305;PMS5003;50735;52.060;1.248;2023-05-10T06:28:24;5;5;
63305;PMS5003;50735;52.060;1.248;2023-05-10T06:30:56;9;7;
63305;PMS5003;50735;52.060;1.248;2023-05-10T06:33:28;4;4;
63305;PMS5003;50735;52.060;1.248;2023-05-10T06:36:00;9;6;
63305;PMS5003;50735;52.060;1.248;2023-05-10T06:38:31;9;7;
63305;PMS5003;50735;52.060;1.248;2023-05-10T06:41:03;7;4;
63305;PMS5003;50735;52.060;1.248;2023-05-10T06:43:35;7;6;
63305;PMS5003;50735;52.060;1.248;2023-05-10T06:46:06;10;6;
63305;PMS5003;50735;52.060;1.248;2023-05-10T06:48:38;11;6;
63305;PMS5003;50735;52.060;1.248;2023-05-10T06:51:10;7;5;
63305;PMS5003;50735;52.060;1.248;2023-05-10T06:53:42;8;6;
63305;PMS5003;50735;52.060;1.248;2023-05-10T06:56:14;7;5;
63305;PMS5003;50735;52.060;1.248;2023-05-10T06:58:46;3;3;
63305;PMS5003;50735;52.060;1.248;2023-05-10T07:01:17;9;5;
63305;PMS5003;50735;52.060;1.248;2023-05-10T07:03:49;7;7;
63305;PMS5003;50735;52.060;1.248;2023-05-10T07:06:21;9;7;
63305;PMS5003;50735;52.060;1.248;2023-05-10T07:08:53;5;5;
63305;PMS5003;50735;52.060;1.248;2023-05-10T07:11:25;6;5;
63305;PMS5003;50735;52.060;1.248;2023-05-10T07:13:56;5;5;
63305;PMS5003;50735;52.060;1.248;2023-05-10T07:16:29;11;11;
63305;PMS5003;50735;52.060;1.248;2023-05-10T07:19:00;9;5;
63305;PMS5003;50735;52.060;1.248;2023-05-10T07:21:32;10;7;
63305;PMS5003;50735;52.060;1.248;2023-05-10T07:24:04;9;6;
63305;PMS5003;50735;52.060;1.248;2023-05-10T07:26:36;11;9;
63305;PMS5003;50735;52.060;1.248;2023-05-10T07:29:08;13;6;
63305;PMS5003;50735;52.060;1.248;2023-05-10T07:31:40;9;8;
63305;PMS5003;50735;52.060;1.248;2023-05-10T07:34:12;4;4;
63305;PMS5003;50735;52.060;1.248;2023-05-10T07:36:44;10;5;
63305;PMS5003;50735;52.060;1.248;2023-05-10T07:39:15;7;5;
63305;PMS5003;50735;52.060;1.248;2023-05-10T07:41:47;5;5;
63305;PMS5003;50735;52.060;1.248;2023-05-10T07:44:18;10;6;
63305;PMS5003;50735;52.060;1.248;2023-05-10T07:46:50;5;5;
63305;PMS5003;50735;52.060;1.248;2023-05-10T07:49:22;8;7;
63305;PMS5003;50735;52.060;1.248;2023-05-10T07:51:54;11;9;
63305;PMS5003;50735;52.060;1.248;2023-05-10T07:54:25;6;6;
63305;PMS5003;50735;52.060;1.248;2023-05-10T07:56:57;7;7;
63305;PMS5003;50735;52.060;1.248;2023-05-10T07:59:29;13;5;
63305;PMS5003;50735;52.060;1.248;2023-05-10T08:02:01;8;6;
63305;PMS5003;50735;52.060;1.248;2023-05-10T08:04:32;9;7;
63305;PMS5003;50735;52.060;1.248;2023-05-10T08:07:04;7;6;
63305;PMS5003;50735;52.060;1.248;2023-05-10T08:09:36;7;6;
63305;PMS5003;50735;52.060;1.248;2023-05-10T08:12:08;7;7;
63305;PMS5003;50735;52.060;1.248;2023-05-10T08:14:40;7;7;
63305;PMS5003;50735;52.060;1.248;2023-05-10T08:17:12;10;10;
63305;PMS5003;50735;52.060;1.248;2023-05-10T08:19:44;9;7;
63305;PMS5003;50735;52.060;1.248;2023-05-10T08:22:16;6;6;
63305;PMS5003;50735;52.060;1.248;2023-05-10T08:24:47;10;5;
63305;PMS5003;50735;52.060;1.248;2023-05-10T08:27:19;12;7;
63305;PMS5003;50735;52.060;1.248;2023-05-10T08:29:51;12;12;
63305;PMS5003;50735;52.060;1.248;2023-05-10T08:32:22;11;8;
63305;PMS5003;50735;52.060;1.248;2023-05-10T08:34:55;9;8;
63305;PMS5003;50735;52.060;1.248;2023-05-10T08:37:29;8;6;
63305;PMS5003;50735;52.060;1.248;2023-05-10T08:40:01;12;9;
63305;PMS5003;50735;52.060;1.248;2023-05-10T08:42:34;6;5;
63305;PMS5003;50735;52.060;1.248;2023-05-10T08:45:08;5;5;
63305;PMS5003;50735;52.060;1.248;2023-05-10T08:47:40;5;5;
63305;PMS5003;50735;52.060;1.248;2023-05-10T08:50:13;9;5;
63305;PMS5003;50735;52.060;1.248;2023-05-10T08:52:47;9;6;
63305;PMS5003;50735;52.060;1.248;2023-05-10T08:55:24;7;5;
63305;PMS5003;50735;52.060;1.248;2023-05-10T08:57:55;8;6;
63305;PMS5003;50735;52.060;1.248;2023-05-10T09:00:28;7;7;
63305;PMS5003;50735;52.060;1.248;2023-05-10T09:03:01;5;5;
63305;PMS5003;50735;52.060;1.248;2023-05-10T09:05:34;7;5;
63305;PMS5003;50735;52.060;1.248;2023-05-10T09:08:07;7;4;
63305;PMS5003;50735;52.060;1.248;2023-05-10T09:10:40;7;7;
63305;PMS5003;50735;52.060;1.248;2023-05-10T09:13:14;5;5;
63305;PMS5003;50735;52.060;1.248;2023-05-10T09:15:47;10;5;
63305;PMS5003;50735;52.060;1.248;2023-05-10T09:18:19;7;6;
63305;PMS5003;50735;52.060;1.248;2023-05-10T09:20:51;8;7;
63305;PMS5003;50735;52.060;1.248;2023-05-10T09:23:22;8;6;
63305;PMS5003;50735;52.060;1.248;2023-05-10T09:26:01;8;8;
63305;PMS5003;50735;52.060;1.248;2023-05-10T09:28:33;11;11;
63305;PMS5003;50735;52.060;1.248;2023-05-10T09:31:21;13;7;
63305;PMS5003;50735;52.060;1.248;2023-05-10T09:33:53;12;7;
63305;PMS5003;50735;52.060;1.248;2023-05-10T09:36:25;9;8;
63305;PMS5003;50735;52.060;1.248;2023-05-10T09:38:58;10;9;
63305;PMS5003;50735;52.060;1.248;2023-05-10T09:41:29;12;10;
63305;PMS5003;50735;52.060;1.248;2023-05-10T09:44:01;8;8;
63305;PMS5003;50735;52.060;1.248;2023-05-10T09:46:34;11;9;
63305;PMS5003;50735;52.060;1.248;2023-05-10T09:49:06;8;8;
63305;PMS5003;50735;52.060;1.248;2023-05-10T09:51:38;9;7;
63305;PMS5003;50735;52.060;1.248;2023-05-10T09:54:10;10;9;
63305;PMS5003;50735;52.060;1.248;2023-05-10T09:56:43;12;8;
63305;PMS5003;50735;52.060;1.248;2023-05-10T09:59:15;10;8;
63305;PMS5003;50735;52.060;1.248;2023-05-10T10:01:49;12;7;
63305;PMS5003;50735;52.060;1.248;2023-05-10T10:04:21;10;10;
63305;PMS5003;50735;52.060;1.248;2023-05-10T10:07:00;11;5;
63305;PMS5003;50735;52.060;1.248;2023-05-10T10:09:34;10;8;
63305;PMS5003;50735;52.060;1.248;2023-05-10T10:12:06;13;9;
63305;PMS5003;50735;52.060;1.248;2023-05-10T10:14:38;10;9;
63305;PMS5003;50735;52.060;1.248;2023-05-10T10:17:10;9;6;
63305;PMS5003;50735;52.060;1.248;2023-05-10T10:19:43;9;7;
63305;PMS5003;50735;52.060;1.248;2023-05-10T10:22:14;10;7;
63305;PMS5003;50735;52.060;1.248;2023-05-10T10:24:46;7;7;
63305;PMS5003;50735;52.060;1.248;2023-05-10T10:27:20;9;7;
63305;PMS5003;50735;52.060;1.248;2023-05-10T10:29:59;6;6;
63305;PMS5003;50735;52.060;1.248;2023-05-10T10:32:42;10;8;
63305;PMS5003;50735;52.060;1.248;2023-05-10T10:35:30;14;9;
63305;PMS5003;50735;52.060;1.248;2023-05-10T10:38:03;10;7;
63305;PMS5003;50735;52.060;1.248;2023-05-10T10:40:34;5;5;
63305;PMS5003;50735;52.060;1.248;2023-05-10T10:43:22;7;7;
63305;PMS5003;50735;52.060;1.248;2023-05-10T10:46:12;10;6;
63305;PMS5003;50735;52.060;1.248;2023-05-10T10:48:47;10;7;
63305;PMS5003;50735;52.060;1.248;2023-05-10T10:51:19;11;8;
63305;PMS5003;50735;52.060;1.248;2023-05-10T10:53:52;6;5;
63305;PMS5003;50735;52.060;1.248;2023-05-10T10:56:25;4;4;
63305;PMS5003;50735;52.060;1.248;2023-05-10T10:58:58;6;6;
63305;PMS5003;50735;52.060;1.248;2023-05-10T11:01:32;5;4;
63305;PMS5003;50735;52.060;1.248;2023-05-10T11:04:21;9;5;
63305;PMS5003;50735;52.060;1.248;2023-05-10T11:06:53;6;6;
63305;PMS5003;50735;52.060;1.248;2023-05-10T11:09:48;6;5;
63305;PMS5003;50735;52.060;1.248;2023-05-10T11:12:19;8;6;
63305;PMS5003;50735;52.060;1.248;2023-05-10T11:14:51;10;7;
63305;PMS5003;50735;52.060;1.248;2023-05-10T11:17:23;7;7;
63305;PMS5003;50735;52.060;1.248;2023-05-10T11:20:13;3;3;
63305;PMS5003;50735;52.060;1.248;2023-05-10T11:22:49;10;8;
63305;PMS5003;50735;52.060;1.248;2023-05-10T11:25:26;8;6;
63305;PMS5003;50735;52.060;1.248;2023-05-10T11:27:58;7;5;
63305;PMS5003;50735;52.060;1.248;2023-05-10T11:30:35;11;8;
63305;PMS5003;50735;52.060;1.248;2023-05-10T11:33:08;8;6;
63305;PMS5003;50735;52.060;1.248;2023-05-10T11:35:40;5;5;
63305;PMS5003;50735;52.060;1.248;2023-05-10T11:38:13;9;6;
63305;PMS5003;50735;52.060;1.248;2023-05-10T11:40:45;5;5;
63305;PMS5003;50735;52.060;1.248;2023-05-10T11:43:17;2;2;
63305;PMS5003;50735;52.060;1.248;2023-05-10T11:45:49;5;5;
63305;PMS5003;50735;52.060;1.248;2023-05-10T11:48:20;5;5;
63305;PMS5003;50735;52.060;1.248;2023-05-10T11:50:52;4;4;
63305;PMS5003;50735;52.060;1.248;2023-05-10T11:53:25;4;4;
63305;PMS5003;50735;52.060;1.248;2023-05-10T11:56:02;6;5;
63305;PMS5003;50735;52.060;1.248;2023-05-10T11:58:34;4;3;
63305;PMS5003;50735;52.060;1.248;2023-05-10T12:01:07;4;2;
63305;PMS5003;50735;52.060;1.248;2023-05-10T12:03:40;8;5;
63305;PMS5003;50735;52.060;1.248;2023-05-10T12:06:12;4;4;
63305;PMS5003;50735;52.060;1.248;2023-05-10T12:08:44;5;3;
63305;PMS5003;50735;52.060;1.248;2023-05-10T12:11:17;5;5;
63305;PMS5003;50735;52.060;1.248;2023-05-10T12:13:49;5;4;
63305;PMS5003;50735;52.060;1.248;2023-05-10T12:16:22;6;3;
63305;PMS5003;50735;52.060;1.248;2023-05-10T12:18:56;6;4;
63305;PMS5003;50735;52.060;1.248;2023-05-10T12:21:30;4;4;
63305;PMS5003;50735;52.060;1.248;2023-05-10T12:24:02;8;5;
63305;PMS5003;50735;52.060;1.248;2023-05-10T12:26:35;3;3;
63305;PMS5003;50735;52.060;1.248;2023-05-10T12:29:15;2;2;
63305;PMS5003;50735;52.060;1.248;2023-05-10T12:31:49;5;4;
63305;PMS5003;50735;52.060;1.248;2023-05-10T12:34:24;6;4;
63305;PMS5003;50735;52.060;1.248;2023-05-10T12:36:56;9;5;
63305;PMS5003;50735;52.060;1.248;2023-05-10T12:39:37;6;6;
63305;PMS5003;50735;52.060;1.248;2023-05-10T12:42:10;6;4;
63305;PMS5003;50735;52.060;1.248;2023-05-10T12:44:41;6;4;
63305;PMS5003;50735;52.060;1.248;2023-05-10T12:47:13;4;4;
63305;PMS5003;50735;52.060;1.248;2023-05-10T12:49:45;4;4;
63305;PMS5003;50735;52.060;1.248;2023-05-10T12:52:16;3;3;
63305;PMS5003;50735;52.060;1.248;2023-05-10T12:54:48;4;3;
63305;PMS5003;50735;52.060;1.248;2023-05-10T12:57:20;3;3;
63305;PMS5003;50735;52.060;1.248;2023-05-10T12:59:54;5;3;
63305;PMS5003;50735;52.060;1.248;2023-05-10T13:02:26;7;4;
63305;PMS5003;50735;52.060;1.248;2023-05-10T13:04:57;4;4;
63305;PMS5003;50735;52.060;1.248;2023-05-10T13:07:29;5;5;
63305;PMS5003;50735;52.060;1.248;2023-05-10T13:10:01;4;4;
63305;PMS5003;50735;52.060;1.248;2023-05-10T13:12:32;7;4;
63305;PMS5003;50735;52.060;1.248;2023-05-10T13:15:04;4;2;
63305;PMS5003;50735;52.060;1.248;2023-05-10T13:17:37;3;3;
63305;PMS5003;50735;52.060;1.248;2023-05-10T13:20:09;5;3;
63305;PMS5003;50735;52.060;1.248;2023-05-10T13:22:42;3;1;
63305;PMS5003;50735;52.060;1.248;2023-05-10T13:25:14;4;4;
63305;PMS5003;50735;52.060;1.248;2023-05-10T13:27:46;4;3;
63305;PMS5003;50735;52.060;1.248;2023-05-10T13:30:17;4;4;
63305;PMS5003;50735;52.060;1.248;2023-05-10T13:32:49;5;3;
63305;PMS5003;50735;52.060;1.248;2023-05-10T13:35:21;3;3;
63305;PMS5003;50735;52.060;1.248;2023-05-10T13:37:53;5;2;
63305;PMS5003;50735;52.060;1.248;2023-05-10T13:40:25;2;2;
63305;PMS5003;50735;52.060;1.248;2023-05-10T13:42:56;3;3;
63305;PMS5003;50735;52.060;1.248;2023-05-10T13:45:28;2;2;
63305;PMS5003;50735;52.060;1.248;2023-05-10T13:48:00;4;3;
63305;PMS5003;50735;52.060;1.248;2023-05-10T13:50:32;4;2;
63305;PMS5003;50735;52.060;1.248;2023-05-10T13:53:03;3;3;
63305;PMS5003;50735;52.060;1.248;2023-05-10T13:55:35;4;4;
63305;PMS5003;50735;52.060;1.248;2023-05-10T13:58:07;3;3;
63305;PMS5003;50735;52.060;1.248;2023-05-10T14:00:38;5;3;
63305;PMS5003;50735;52.060;1.248;2023-05-10T14:03:10;2;2;
63305;PMS5003;50735;52.060;1.248;2023-05-10T14:05:42;3;3;
63305;PMS5003;50735;52.060;1.248;2023-05-10T14:08:13;2;2;
63305;PMS5003;50735;52.060;1.248;2023-05-10T14:10:45;5;3;
63305;PMS5003;50735;52.060;1.248;2023-05-10T14:13:17;3;3;
63305;PMS5003;50735;52.060;1.248;2023-05-10T14:15:48;4;3;
63305;PMS5003;50735;52.060;1.248;2023-05-10T14:18:20;5;3;
63305;PMS5003;50735;52.060;1.248;2023-05-10T14:20:52;1;1;
63305;PMS5003;50735;52.060;1.248;2023-05-10T14:23:24;1;1;
63305;PMS5003;50735;52.060;1.248;2023-05-10T14:25:56;2;2;
63305;PMS5003;50735;52.060;1.248;2023-05-10T14:28:28;2;1;
63305;PMS5003;50735;52.060;1.248;2023-05-10T14:30:59;2;2;
63305;PMS5003;50735;52.060;1.248;2023-05-10T14:33:31;0;0;
63305;PMS5003;50735;52.060;1.248;2023-05-10T14:36:03;1;1;
63305;PMS5003;50735;52.060;1.248;2023-05-10T14:38:35;4;2;
63305;PMS5003;50735;52.060;1.248;2023-05-10T14:41:07;1;1;
63305;PMS5003;50735;52.060;1.248;2023-05-10T14:43:39;1;1;
63305;PMS5003;50735;52.060;1.248;2023-05-10T14:46:10;1;1;
63305;PMS5003;50735;52.060;1.248;2023-05-10T14:48:42;1;1;
63305;PMS5003;50735;52.060;1.248;2023-05-10T14:51:14;3;0;
63305;PMS5003;50735;52.060;1.248;2023-05-10T14:53:45;0;0;
63305;PMS5003;50735;52.060;1.248;2023-05-10T14:56:17;4;2;
63305;PMS5003;50735;52.060;1.248;2023-05-10T14:58:49;1;1;
63305;PMS5003;50735;52.060;1.248;2023-05-10T15:01:21;2;2;
63305;PMS5003;50735;52.060;1.248;2023-05-10T15:03:53;7;3;
63305;PMS5003;50735;52.060;1.248;2023-05-10T15:06:30;2;2;
63305;PMS5003;50735;52.060;1.248;2023-05-10T15:09:02;1;1;
63305;PMS5003;50735;52.060;1.248;2023-05-10T15:11:34;2;2;
63305;PMS5003;50735;52.060;1.248;2023-05-10T15:14:05;2;2;
63305;PMS5003;50735;52.060;1.248;2023-05-10T15:16:37;2;2;
63305;PMS5003;50735;52.060;1.248;2023-05-10T15:19:09;2;2;
63305;PMS5003;50735;52.060;1.248;2023-05-10T15:21:40;1;1;
63305;PMS5003;50735;52.060;1.248;2023-05-10T15:24:12;4;2;
63305;PMS5003;50735;52.060;1.248;2023-05-10T15:26:44;1;1;
63305;PMS5003;50735;52.060;1.248;2023-05-10T15:29:16;2;2;
63305;PMS5003;50735;52.060;1.248;2023-05-10T15:31:47;1;1;
63305;PMS5003;50735;52.060;1.248;2023-05-10T15:34:20;2;2;
63305;PMS5003;50735;52.060;1.248;2023-05-10T15:36:51;1;1;
63305;PMS5003;50735;52.060;1.248;2023-05-10T15:39:23;3;2;
63305;PMS5003;50735;52.060;1.248;2023-05-10T15:41:55;2;1;
63305;PMS5003;50735;52.060;1.248;2023-05-10T15:44:26;2;1;
63305;PMS5003;50735;52.060;1.248;2023-05-10T15:46:58;4;3;
63305;PMS5003;50735;52.060;1.248;2023-05-10T15:49:30;1;1;
63305;PMS5003;50735;52.060;1.248;2023-05-10T15:52:02;2;2;
63305;PMS5003;50735;52.060;1.248;2023-05-10T15:54:33;4;3;
63305;PMS5003;50735;52.060;1.248;2023-05-10T15:57:05;3;2;
63305;PMS5003;50735;52.060;1.248;2023-05-10T15:59:37;4;1;
63305;PMS5003;50735;52.060;1.248;2023-05-10T16:02:08;1;1;
63305;PMS5003;50735;52.060;1.248;2023-05-10T16:04:40;1;1;
63305;PMS5003;50735;52.060;1.248;2023-05-10T16:07:13;1;1;
63305;PMS5003;50735;52.060;1.248;2023-05-10T16:09:44;5;1;
63305;PMS5003;50735;52.060;1.248;2023-05-10T16:12:16;5;3;
63305;PMS5003;50735;52.060;1.248;2023-05-10T16:14:48;1;1;
63305;PMS5003;50735;52.060;1.248;2023-05-10T16:17:19;2;2;
63305;PMS5003;50735;52.060;1.248;2023-05-10T16:19:51;5;3;
63305;PMS5003;50735;52.060;1.248;2023-05-10T16:22:23;2;2;
63305;PMS5003;50735;52.060;1.248;2023-05-10T16:24:56;3;2;
63305;PMS5003;50735;52.060;1.248;2023-05-10T16:27:29;2;2;
63305;PMS5003;50735;52.060;1.248;2023-05-10T16:30:01;4;2;
63305;PMS5003;50735;52.060;1.248;2023-05-10T16:32:32;1;1;
63305;PMS5003;50735;52.060;1.248;2023-05-10T16:35:04;2;2;
63305;PMS5003;50735;52.060;1.248;2023-05-10T16:37:36;2;2;
63305;PMS5003;50735;52.060;1.248;2023-05-10T16:40:08;1;1;
63305;PMS5003;50735;52.060;1.248;2023-05-10T16:42:41;1;1;
63305;PMS5003;50735;52.060;1.248;2023-05-10T16:45:12;2;2;
63305;PMS5003;50735;52.060;1.248;2023-05-10T16:47:44;1;1;
63305;PMS5003;50735;52.060;1.248;2023-05-10T16:50:16;0;0;
63305;PMS5003;50735;52.060;1.248;2023-05-10T16:52:48;1;1;
63305;PMS5003;50735;52.060;1.248;2023-05-10T16:55:19;2;2;
63305;PMS5003;50735;52.060;1.248;2023-05-10T16:57:52;2;2;
63305;PMS5003;50735;52.060;1.248;2023-05-10T17:00:24;3;3;
63305;PMS5003;50735;52.060;1.248;2023-05-10T17:02:55;4;2;
63305;PMS5003;50735;52.060;1.248;2023-05-10T17:05:27;2;2;
63305;PMS5003;50735;52.060;1.248;2023-05-10T17:07:59;2;2;
63305;PMS5003;50735;52.060;1.248;2023-05-10T17:10:31;1;1;
63305;PMS5003;50735;52.060;1.248;2023-05-10T17:13:03;3;3;
63305;PMS5003;50735;52.060;1.248;2023-05-10T17:15:35;1;1;
63305;PMS5003;50735;52.060;1.248;2023-05-10T17:18:06;1;1;
63305;PMS5003;50735;52.060;1.248;2023-05-10T17:20:38;1;1;
63305;PMS5003;50735;52.060;1.248;2023-05-10T17:23:10;2;2;
63305;PMS5003;50735;52.060;1.248;2023-05-10T17:25:41;3;1;